createdAt,value
2019-04-23T00:02:39.283Z,83.40
2019-04-23T00:03:45.829Z,82.80
2019-04-23T00:04:53.045Z,83.00
2019-04-23T00:06:15.598Z,83.40
2019-04-23T00:07:40.071Z,82.80
2019-04-23T00:08:41.804Z,83.60
2019-04-23T00:09:32.987Z,83.60
2019-04-23T00:10:40.976Z,83.00
2019-04-23T00:11:47.006Z,83.30
2019-04-23T00:12:52.742Z,83.60
2019-04-23T00:14:10.069Z,84.10
2019-04-23T00:15:18.182Z,83.80
2019-04-23T00:16:21.934Z,83.00
2019-04-23T00:17:30.433Z,81.90
2019-04-23T00:18:43.758Z,82.80
2019-04-23T00:19:40.088Z,83.90
2019-04-23T00:20:47.829Z,82.90
2019-04-23T00:22:28.904Z,83.10
2019-04-23T00:23:46.288Z,83.30
2019-04-23T00:26:33.254Z,83.20
2019-04-23T00:28:47.915Z,82.70
2019-04-23T00:29:53.394Z,82.60
2019-04-23T00:31:02.726Z,82.30
2019-04-23T00:32:08.461Z,82.20
2019-04-23T00:33:18.578Z,82.50
2019-04-23T00:34:26.865Z,82.50
2019-04-23T00:35:34.210Z,82.00
2019-04-23T00:36:38.979Z,81.00
2019-04-23T00:37:39.379Z,81.40
2019-04-23T00:38:49.945Z,81.00
2019-04-23T00:40:23.440Z,80.80
2019-04-23T00:41:09.293Z,81.50
2019-04-23T00:42:25.741Z,82.00
2019-04-23T00:43:27.288Z,81.60
2019-04-23T00:44:42.985Z,81.50
2019-04-23T00:45:44.151Z,81.80
2019-04-23T00:47:06.730Z,81.30
2019-04-23T00:47:55.159Z,81.70
2019-04-23T00:49:18.117Z,81.70
2019-04-23T00:50:21.379Z,81.70
2019-04-23T00:51:22.335Z,80.30
2019-04-23T00:52:33.875Z,80.10
2019-04-23T00:53:38.951Z,80.50
2019-04-23T00:56:11.617Z,80.50
2019-04-23T00:57:08.972Z,80.70
2019-04-23T00:59:21.086Z,80.50
2019-04-23T01:00:35.376Z,80.50
2019-04-23T01:01:44.479Z,81.00
2019-04-23T01:03:56.383Z,81.00
2019-04-23T01:06:18.309Z,81.30
2019-04-23T01:07:21.552Z,80.80
2019-04-23T01:09:40.530Z,80.50
2019-04-23T01:10:58.333Z,80.00
2019-04-23T01:12:03.848Z,80.10
2019-04-23T01:13:09.188Z,79.40
2019-04-23T01:14:14.833Z,79.70
2019-04-23T01:15:25.757Z,79.20
2019-04-23T01:16:28.306Z,79.80
2019-04-23T01:18:54.404Z,79.80
2019-04-23T01:20:08.466Z,80.20
2019-04-23T01:21:03.462Z,78.90
2019-04-23T01:22:10.719Z,79.60
2019-04-23T01:23:55.885Z,80.00
2019-04-23T01:25:11.172Z,80.30
2019-04-23T01:26:29.604Z,80.80
2019-04-23T01:28:04.403Z,81.40
2019-04-23T01:28:55.877Z,81.10
2019-04-23T01:30:08.446Z,81.40
2019-04-23T01:31:09.167Z,81.20
2019-04-23T01:32:15.883Z,80.90
2019-04-23T01:34:31.340Z,80.70
2019-04-23T01:35:36.540Z,80.60
2019-04-23T01:36:46.448Z,80.90
2019-04-23T01:37:55.670Z,81.40
2019-04-23T01:39:06.332Z,80.50
2019-04-23T01:40:22.007Z,80.30
2019-04-23T01:41:21.707Z,81.00
2019-04-23T01:42:38.876Z,81.90
2019-04-23T01:43:36.580Z,82.10
2019-04-23T01:44:50.423Z,81.20
2019-04-23T01:45:49.470Z,81.40
2019-04-23T01:47:02.751Z,80.90
2019-04-23T01:48:05.239Z,80.50
2019-04-23T01:49:20.727Z,80.20
2019-04-23T01:50:27.533Z,80.60
2019-04-23T01:51:39.949Z,80.70
2019-04-23T01:52:45.669Z,81.00
2019-04-23T01:55:01.768Z,81.90
2019-04-23T01:57:16.742Z,81.80
2019-04-23T01:59:31.611Z,81.10
2019-04-23T02:01:58.842Z,80.80
2019-04-23T02:02:55.586Z,81.60
2019-04-23T02:04:03.718Z,81.40
2019-04-23T02:05:21.135Z,81.80
2019-04-23T02:06:31.597Z,81.60
2019-04-23T02:07:33.045Z,81.70
2019-04-23T02:08:32.252Z,80.70
2019-04-23T02:09:52.796Z,81.20
2019-04-23T02:11:01.161Z,81.30
2019-04-23T02:12:00.379Z,81.40
2019-04-23T02:13:12.626Z,81.40
2019-04-23T02:14:15.752Z,81.20
2019-04-23T02:15:26.420Z,81.00
2019-04-23T02:16:32.696Z,81.40
2019-04-23T02:17:38.730Z,81.60
2019-04-23T02:18:50.744Z,81.30
2019-04-23T02:20:01.395Z,81.00
2019-04-23T02:21:07.589Z,81.20
2019-04-23T02:22:46.358Z,80.20
2019-04-23T02:23:45.613Z,80.30
2019-04-23T02:24:54.517Z,80.90
2019-04-23T02:27:11.774Z,80.80
2019-04-23T02:28:15.982Z,81.50
2019-04-23T02:29:38.128Z,81.20
2019-04-23T02:34:18.598Z,80.90
2019-04-23T02:35:29.276Z,81.40
2019-04-23T02:36:11.184Z,81.00
2019-04-23T02:37:36.003Z,81.00
2019-04-23T02:38:45.226Z,80.70
2019-04-23T02:39:51.949Z,80.80
2019-04-23T02:41:29.767Z,81.20
2019-04-23T02:43:15.271Z,80.60
2019-04-23T02:45:27.457Z,80.80
2019-04-23T02:46:20.997Z,81.30
2019-04-23T02:47:52.623Z,80.90
2019-04-23T02:48:58.267Z,81.20
2019-04-23T02:51:03.928Z,80.60
2019-04-23T02:52:18.873Z,80.70
2019-04-23T02:53:37.646Z,81.70
2019-04-23T02:54:46.677Z,81.20
2019-04-23T02:55:43.609Z,81.30
2019-04-23T02:57:50.427Z,81.00
2019-04-23T03:00:22.550Z,81.00
2019-04-23T03:02:38.460Z,81.10
2019-04-23T03:04:40.009Z,81.20
2019-04-23T03:05:57.301Z,81.20
2019-04-23T03:07:02.840Z,81.00
2019-04-23T03:08:00.419Z,81.00
2019-04-23T03:09:27.893Z,81.10
2019-04-23T03:10:20.442Z,81.50
2019-04-23T03:12:37.751Z,81.20
2019-04-23T03:14:00.280Z,81.40
2019-04-23T03:16:33.892Z,81.90
2019-04-23T03:17:47.267Z,81.30
2019-04-23T03:20:14.747Z,81.40
2019-04-23T03:21:33.415Z,81.40
2019-04-23T03:22:56.167Z,81.40
2019-04-23T03:25:25.600Z,82.60
2019-04-23T03:28:57.766Z,81.70
2019-04-23T03:30:06.190Z,81.80
2019-04-23T03:36:10.835Z,82.00
2019-04-23T03:38:07.640Z,83.00
2019-04-23T03:39:19.078Z,82.50
2019-04-23T03:40:21.247Z,81.70
2019-04-23T03:41:32.412Z,81.40
2019-04-23T03:42:37.226Z,81.70
2019-04-23T03:43:41.129Z,81.50
2019-04-23T03:46:12.090Z,81.90
2019-04-23T03:48:14.898Z,81.80
2019-04-23T03:49:30.115Z,81.50
2019-04-23T03:50:38.003Z,81.70
2019-04-23T03:52:48.793Z,81.30
2019-04-23T03:54:11.660Z,81.50
2019-04-23T03:55:08.146Z,81.50
2019-04-23T03:56:18.917Z,81.30
2019-04-23T03:57:23.621Z,81.70
2019-04-23T03:58:27.911Z,81.30
2019-04-23T04:00:51.464Z,81.50
2019-04-23T04:03:27.452Z,81.60
2019-04-23T04:05:32.905Z,81.60
2019-04-23T04:06:33.795Z,81.70
2019-04-23T04:07:36.545Z,81.70
2019-04-23T04:08:58.447Z,81.50
2019-04-23T04:11:04.201Z,80.90
2019-04-23T04:12:04.452Z,80.70
2019-04-23T04:13:12.146Z,80.30
2019-04-23T04:16:36.491Z,80.00
2019-04-23T04:17:37.629Z,79.90
2019-04-23T04:19:56.366Z,79.60
2019-04-23T04:21:08.486Z,79.60
2019-04-23T04:22:21.203Z,80.60
2019-04-23T04:24:39.536Z,79.80
2019-04-23T04:25:41.191Z,79.10
2019-04-23T04:26:55.932Z,79.70
2019-04-23T04:29:01.252Z,79.10
2019-04-23T04:31:16.275Z,78.90
2019-04-23T04:32:22.038Z,78.40
2019-04-23T04:35:07.415Z,78.90
2019-04-23T04:35:47.005Z,78.10
2019-04-23T04:37:27.920Z,77.60
2019-04-23T04:38:18.268Z,77.80
2019-04-23T04:39:08.300Z,77.70
2019-04-23T04:40:39.670Z,77.50
2019-04-23T04:42:37.094Z,76.90
2019-04-23T04:43:54.161Z,76.00
2019-04-23T04:47:10.020Z,76.00
2019-04-23T04:48:18.123Z,75.50
2019-04-23T04:49:30.113Z,76.10
2019-04-23T04:50:39.221Z,76.30
2019-04-23T04:51:51.856Z,76.70
2019-04-23T04:55:07.599Z,73.90
2019-04-23T04:56:29.056Z,74.30
2019-04-23T04:57:30.255Z,74.50
2019-04-23T04:58:30.852Z,74.60
2019-04-23T04:59:43.310Z,74.70
2019-04-23T05:01:02.979Z,75.70
2019-04-23T05:02:00.358Z,74.60
2019-04-23T05:04:13.528Z,73.90
2019-04-23T05:06:39.415Z,73.80
2019-04-23T05:11:02.056Z,72.50
2019-04-23T05:12:17.190Z,73.10
2019-04-23T05:14:26.489Z,71.80
2019-04-23T05:15:23.806Z,71.30
2019-04-23T05:16:37.081Z,70.80
2019-04-23T05:20:38.994Z,70.60
2019-04-23T05:23:00.150Z,70.20
2019-04-23T05:24:06.658Z,69.50
2019-04-23T05:24:58.577Z,69.60
2019-04-23T05:27:20.316Z,69.40
2019-04-23T05:28:34.174Z,69.50
2019-04-23T05:29:42.722Z,68.50
2019-04-23T05:30:51.799Z,69.00
2019-04-23T05:31:53.160Z,67.80
2019-04-23T05:34:14.738Z,67.50
2019-04-23T05:35:39.919Z,68.10
2019-04-23T05:37:55.032Z,68.10
2019-04-23T05:40:21.408Z,68.10
2019-04-23T05:42:04.351Z,67.90
2019-04-23T05:43:22.504Z,69.20
2019-04-23T05:44:37.196Z,67.10
2019-04-23T05:45:37.342Z,66.90
2019-04-23T05:48:04.680Z,66.40
2019-04-23T05:49:00.238Z,66.20
2019-04-23T05:51:38.269Z,64.80
2019-04-23T05:52:27.886Z,65.40
2019-04-23T05:53:33.853Z,64.70
2019-04-23T05:54:47.315Z,64.20
2019-04-23T05:55:47.620Z,63.90
2019-04-23T05:56:54.203Z,64.40
2019-04-23T05:58:00.587Z,64.50
2019-04-23T05:59:11.869Z,64.10
2019-04-23T06:00:28.754Z,62.00
2019-04-23T06:02:48.437Z,63.30
2019-04-23T06:03:58.267Z,62.70
2019-04-23T06:05:03.788Z,62.10
2019-04-23T06:06:10.850Z,61.80
2019-04-23T06:09:34.091Z,61.40
2019-04-23T06:10:54.158Z,61.40
2019-04-23T06:11:57.084Z,61.90
2019-04-23T06:12:59.572Z,61.80
2019-04-23T06:15:22.014Z,60.50
2019-04-23T06:16:31.410Z,60.30
2019-04-23T06:17:29.834Z,59.90
2019-04-23T06:19:54.749Z,59.80
2019-04-23T06:22:18.752Z,59.10
2019-04-23T06:23:21.316Z,59.00
2019-04-23T06:26:51.767Z,58.20
2019-04-23T06:27:54.401Z,57.80
2019-04-23T06:29:06.760Z,58.10
2019-04-23T06:30:08.762Z,58.10
2019-04-23T06:32:25.861Z,58.10
2019-04-23T06:33:32.701Z,57.50
2019-04-23T06:34:47.248Z,57.70
2019-04-23T06:35:50.450Z,57.80
2019-04-23T06:36:57.242Z,58.00
2019-04-23T06:39:15.795Z,58.00
2019-04-23T06:40:25.281Z,56.70
2019-04-23T06:41:29.045Z,55.70
2019-04-23T06:42:52.145Z,56.10
2019-04-23T06:44:12.972Z,56.40
2019-04-23T06:45:19.287Z,55.60
2019-04-23T06:46:30.682Z,55.10
2019-04-23T06:47:28.806Z,54.90
2019-04-23T06:48:45.473Z,54.00
2019-04-23T06:49:51.328Z,54.50
2019-04-23T06:53:09.052Z,54.20
2019-04-23T06:54:32.879Z,54.00
2019-04-23T06:55:33.037Z,54.40
2019-04-23T06:56:43.512Z,53.60
2019-04-23T06:57:52.277Z,52.70
2019-04-23T06:59:00.912Z,52.70
2019-04-23T07:00:10.232Z,51.80
2019-04-23T07:01:13.402Z,51.70
2019-04-23T07:04:41.030Z,52.00
2019-04-23T07:07:37.968Z,51.10
2019-04-23T07:08:32.714Z,51.20
2019-04-23T07:09:20.458Z,51.00
2019-04-23T07:10:39.050Z,50.20
2019-04-23T07:11:42.829Z,50.30
2019-04-23T07:12:57.755Z,50.20
2019-04-23T07:13:58.291Z,50.20
2019-04-23T07:17:18.512Z,49.70
2019-04-23T07:18:34.476Z,49.30
2019-04-23T07:19:42.506Z,49.60
2019-04-23T07:20:53.178Z,49.80
2019-04-23T07:22:12.116Z,50.30
2019-04-23T07:23:14.175Z,50.50
2019-04-23T07:24:27.699Z,49.40
2019-04-23T07:25:29.323Z,48.60
2019-04-23T07:26:36.334Z,48.60
2019-04-23T07:27:33.303Z,48.20
2019-04-23T07:29:03.514Z,48.10
2019-04-23T07:30:03.888Z,48.30
2019-04-23T07:31:09.941Z,48.60
2019-04-23T07:32:11.065Z,49.30
2019-04-23T07:33:19.117Z,49.10
2019-04-23T07:34:26.683Z,49.10
2019-04-23T07:35:42.817Z,48.60
2019-04-23T07:36:47.844Z,49.20
2019-04-23T07:38:06.166Z,48.00
2019-04-23T07:39:20.571Z,48.30
2019-04-23T07:43:30.758Z,48.00
2019-04-23T07:44:54.525Z,48.30
2019-04-23T07:48:24.240Z,47.70
2019-04-23T07:49:52.247Z,48.10
2019-04-23T07:50:49.102Z,48.00
2019-04-23T07:52:04.325Z,47.90
2019-04-23T07:53:12.616Z,48.30
2019-04-23T07:54:21.160Z,47.70
2019-04-23T07:55:37.673Z,47.80
2019-04-23T07:56:27.903Z,47.80
2019-04-23T07:57:41.629Z,47.20
2019-04-23T07:58:39.650Z,46.50
2019-04-23T07:59:56.839Z,47.00
2019-04-23T08:02:24.139Z,47.20
2019-04-23T08:04:35.656Z,46.90
2019-04-23T08:05:36.204Z,46.70
2019-04-23T08:06:45.972Z,47.50
2019-04-23T08:07:57.403Z,47.50
2019-04-23T08:09:04.042Z,47.60
2019-04-23T08:10:15.273Z,47.00
2019-04-23T08:12:42.487Z,47.20
2019-04-23T08:13:41.658Z,46.00
2019-04-23T08:14:51.261Z,45.70
2019-04-23T08:15:46.566Z,45.70
2019-04-23T08:16:57.902Z,46.00
2019-04-23T08:18:07.236Z,46.40
2019-04-23T08:19:17.080Z,46.40
2019-04-23T08:20:21.293Z,46.20
2019-04-23T08:21:30.601Z,46.10
2019-04-23T08:22:40.762Z,45.10
2019-04-23T08:24:10.321Z,45.80
2019-04-23T08:25:44.834Z,44.80
2019-04-23T08:26:58.294Z,44.00
2019-04-23T08:28:11.836Z,43.70
2019-04-23T08:29:15.374Z,43.90
2019-04-23T08:30:15.907Z,43.30
2019-04-23T08:32:27.758Z,44.20
2019-04-23T08:33:49.990Z,43.20
2019-04-23T08:34:58.855Z,43.30
2019-04-23T08:36:09.102Z,43.50
2019-04-23T08:38:25.863Z,43.60
2019-04-23T08:39:28.653Z,43.60
2019-04-23T08:40:33.769Z,43.70
2019-04-23T08:41:59.556Z,43.60
2019-04-23T08:43:02.062Z,43.20
2019-04-23T08:44:09.223Z,43.00
2019-04-23T08:45:28.042Z,43.40
2019-04-23T08:47:10.094Z,43.70
2019-04-23T08:49:36.406Z,43.90
2019-04-23T08:50:38.458Z,44.10
2019-04-23T08:53:03.800Z,43.70
2019-04-23T08:54:11.751Z,44.20
2019-04-23T08:55:10.119Z,43.70
2019-04-23T08:56:23.635Z,43.20
2019-04-23T08:57:26.961Z,43.30
2019-04-23T08:59:43.978Z,43.80
2019-04-23T09:02:16.420Z,43.00
2019-04-23T09:04:18.534Z,42.90
2019-04-23T09:06:29.464Z,42.70
2019-04-23T09:07:46.733Z,42.40
2019-04-23T09:09:10.425Z,41.40
2019-04-23T09:11:20.035Z,38.60
2019-04-23T09:12:18.866Z,36.70
2019-04-23T09:14:22.878Z,33.60
2019-04-23T09:15:45.046Z,32.90
2019-04-23T09:16:54.442Z,31.70
2019-04-23T09:17:57.874Z,31.40
2019-04-23T09:19:10.867Z,30.20
2019-04-23T09:21:24.796Z,32.20
2019-04-23T09:22:28.263Z,32.60
2019-04-23T09:27:05.577Z,33.50
2019-04-23T09:28:13.739Z,35.00
2019-04-23T09:33:43.232Z,37.80
2019-04-23T09:36:59.686Z,39.10
2019-04-23T09:38:17.746Z,38.60
2019-04-23T09:39:34.883Z,38.70
2019-04-23T09:41:19.997Z,38.80
2019-04-23T09:44:14.599Z,39.60
2019-04-23T09:45:37.071Z,40.20
2019-04-23T09:46:53.000Z,41.40
2019-04-23T09:48:11.649Z,40.40
2019-04-23T09:49:16.234Z,39.20
2019-04-23T09:50:24.074Z,39.40
2019-04-23T09:51:30.864Z,39.00
2019-04-23T09:52:40.377Z,39.80
2019-04-23T09:53:48.195Z,39.90
2019-04-23T09:54:58.630Z,39.60
2019-04-23T09:55:53.682Z,39.50
2019-04-23T09:57:04.593Z,39.60
2019-04-23T09:58:11.933Z,38.80
2019-04-23T10:01:41.050Z,39.60
2019-04-23T10:02:41.176Z,40.00
2019-04-23T10:03:46.262Z,39.20
2019-04-23T10:04:57.468Z,39.40
2019-04-23T10:05:59.805Z,39.10
2019-04-23T10:07:13.928Z,39.60
2019-04-23T10:08:17.454Z,39.20
2019-04-23T10:09:16.165Z,39.60
2019-04-23T10:10:22.810Z,39.00
2019-04-23T10:11:30.541Z,39.20
2019-04-23T10:12:37.691Z,39.00
2019-04-23T10:13:45.089Z,39.40
2019-04-23T10:15:01.273Z,39.30
2019-04-23T10:16:02.283Z,38.80
2019-04-23T10:17:10.263Z,38.70
2019-04-23T10:18:18.196Z,38.90
2019-04-23T10:19:24.815Z,38.80
2019-04-23T10:20:31.341Z,38.90
2019-04-23T10:21:37.700Z,39.30
2019-04-23T10:22:44.246Z,39.00
2019-04-23T10:23:51.648Z,38.50
2019-04-23T10:24:59.442Z,37.90
2019-04-23T10:26:06.226Z,37.10
2019-04-23T10:27:12.593Z,35.00
2019-04-23T10:28:42.157Z,33.80
2019-04-23T10:29:49.869Z,33.90
2019-04-23T10:30:58.617Z,33.70
2019-04-23T10:32:05.455Z,34.50
2019-04-23T10:33:11.861Z,35.10
2019-04-23T10:34:18.984Z,35.10
2019-04-23T10:35:35.117Z,35.00
2019-04-23T10:36:34.593Z,35.10
2019-04-23T10:37:49.005Z,34.60
2019-04-23T10:38:55.988Z,34.60
2019-04-23T10:40:01.216Z,34.80
2019-04-23T10:41:06.395Z,34.70
2019-04-23T10:42:14.102Z,35.00
2019-04-23T10:43:22.651Z,34.90
2019-04-23T10:44:50.096Z,34.90
2019-04-23T10:46:44.204Z,35.00
2019-04-23T10:48:23.114Z,34.20
2019-04-23T10:49:42.695Z,33.90
2019-04-23T10:51:59.769Z,32.10
2019-04-23T10:53:18.775Z,31.40
2019-04-23T10:55:32.187Z,28.80
2019-04-23T10:56:34.721Z,28.50
2019-04-23T10:57:31.609Z,27.20
2019-04-23T10:58:47.584Z,26.80
2019-04-23T10:59:47.154Z,26.30
2019-04-23T11:01:08.749Z,26.80
2019-04-23T11:04:47.570Z,24.70
2019-04-23T11:05:51.701Z,25.30
2019-04-23T11:06:45.744Z,24.90
2019-04-23T11:07:43.954Z,25.00
2019-04-23T11:09:13.120Z,25.00
2019-04-23T11:10:15.629Z,25.60
2019-04-23T11:11:22.877Z,26.10
2019-04-23T11:13:10.783Z,26.20
2019-04-23T11:17:45.498Z,25.40
2019-04-23T11:18:50.173Z,25.10
2019-04-23T11:19:49.095Z,24.50
2019-04-23T11:20:50.111Z,24.80
2019-04-23T11:22:24.905Z,24.50
2019-04-23T11:22:58.479Z,25.30
2019-04-23T11:24:33.021Z,26.40
2019-04-23T11:25:36.766Z,27.30
2019-04-23T11:26:40.401Z,27.10
2019-04-23T11:27:44.014Z,25.80
2019-04-23T11:28:48.205Z,24.70
2019-04-23T11:31:13.887Z,24.20
2019-04-23T11:32:46.847Z,24.20
2019-04-23T11:33:30.178Z,26.10
2019-04-23T11:34:57.321Z,26.30
2019-04-23T11:38:15.863Z,25.80
2019-04-23T11:38:21.005Z,24.40
2019-04-23T11:39:23.209Z,24.40
2019-04-23T11:40:21.454Z,24.70
2019-04-23T11:41:41.841Z,25.10
2019-04-23T11:42:38.779Z,25.30
2019-04-23T11:43:39.433Z,24.80
2019-04-23T11:44:51.129Z,24.60
2019-04-23T11:46:06.430Z,24.10
2019-04-23T11:48:33.054Z,22.90
2019-04-23T11:49:34.551Z,23.00
2019-04-23T11:52:51.708Z,23.20
2019-04-23T11:53:54.340Z,23.20
2019-04-23T11:55:00.694Z,23.30
2019-04-23T11:56:12.098Z,23.90
2019-04-23T11:59:36.178Z,23.50
2019-04-23T12:01:04.604Z,23.00
2019-04-23T12:02:18.563Z,22.80
2019-04-23T12:03:19.435Z,22.50
2019-04-23T12:04:48.633Z,22.30
2019-04-23T12:06:11.890Z,22.70
2019-04-23T12:07:32.650Z,22.80
2019-04-23T12:08:57.101Z,23.30
2019-04-23T12:10:17.212Z,23.70
2019-04-23T12:12:39.617Z,25.40
2019-04-23T12:14:02.417Z,24.90
2019-04-23T12:15:09.665Z,23.90
2019-04-23T12:16:25.814Z,24.10
2019-04-23T12:17:34.955Z,25.60
2019-04-23T12:18:31.999Z,26.50
2019-04-23T12:20:41.187Z,24.90
2019-04-23T12:22:03.366Z,24.40
2019-04-23T12:23:16.580Z,24.30
2019-04-23T12:25:36.167Z,24.90
2019-04-23T12:26:35.425Z,24.50
2019-04-23T12:27:38.642Z,25.60
2019-04-23T12:28:52.957Z,25.80
2019-04-23T12:29:52.415Z,26.30
2019-04-23T12:31:05.587Z,27.20
2019-04-23T12:33:36.177Z,27.70
2019-04-23T12:34:48.705Z,28.00
2019-04-23T12:35:43.648Z,26.90
2019-04-23T12:36:51.404Z,26.70
2019-04-23T12:38:17.498Z,26.00
2019-04-23T12:39:21.545Z,26.00
2019-04-23T12:40:24.981Z,27.00
2019-04-23T12:41:36.112Z,27.90
2019-04-23T12:43:50.581Z,29.00
2019-04-23T12:45:05.236Z,29.60
2019-04-23T12:45:56.133Z,30.00
2019-04-23T12:47:25.467Z,30.10
2019-04-23T12:48:35.070Z,30.60
2019-04-23T12:51:50.293Z,31.30
2019-04-23T12:52:54.171Z,31.50
2019-04-23T12:54:07.697Z,31.10
2019-04-23T12:55:15.333Z,31.40
2019-04-23T12:56:36.217Z,31.10
2019-04-23T12:57:35.763Z,31.00
2019-04-23T12:58:29.213Z,30.80
2019-04-23T12:59:44.714Z,30.40
2019-04-23T13:00:47.825Z,28.70
2019-04-23T13:02:05.388Z,27.80
2019-04-23T13:03:25.657Z,27.20
2019-04-23T13:04:20.065Z,26.80
2019-04-23T13:06:27.116Z,27.10
2019-04-23T13:08:51.526Z,28.40
2019-04-23T13:10:14.774Z,28.10
2019-04-23T13:11:07.277Z,28.30
2019-04-23T13:12:32.802Z,28.60
2019-04-23T13:14:45.495Z,29.10
2019-04-23T13:17:05.491Z,29.90
2019-04-23T13:17:56.706Z,29.70
2019-04-23T13:19:16.811Z,30.00
2019-04-23T13:20:19.501Z,29.80
2019-04-23T13:21:45.344Z,29.80
2019-04-23T13:22:48.896Z,30.00
2019-04-23T13:23:40.889Z,29.90
2019-04-23T13:25:10.113Z,30.00
2019-04-23T13:26:08.930Z,29.80
2019-04-23T13:27:38.186Z,29.80
2019-04-23T13:28:37.710Z,29.90
2019-04-23T13:29:56.848Z,30.20
2019-04-23T13:31:08.596Z,30.00
2019-04-23T13:32:05.431Z,29.50
2019-04-23T13:33:21.155Z,29.80
2019-04-23T13:34:23.300Z,29.70
2019-04-23T13:35:48.715Z,30.00
2019-04-23T13:36:41.776Z,30.20
2019-04-23T13:37:54.539Z,30.60
2019-04-23T13:39:10.575Z,30.80
2019-04-23T13:39:58.389Z,30.80
2019-04-23T13:41:17.455Z,31.00
2019-04-23T13:42:35.650Z,31.30
2019-04-23T13:43:37.956Z,31.30
2019-04-23T13:44:43.903Z,31.50
2019-04-23T13:45:59.190Z,31.90
2019-04-23T13:46:50.987Z,31.90
2019-04-23T13:48:06.162Z,32.10
2019-04-23T13:49:07.401Z,31.80
2019-04-23T13:53:02.645Z,32.10
2019-04-23T13:55:52.531Z,31.80
2019-04-23T13:57:32.505Z,31.80
2019-04-23T13:58:14.671Z,32.00
2019-04-23T13:59:30.538Z,32.30
2019-04-23T14:01:54.749Z,32.60
2019-04-23T14:02:49.407Z,32.40
2019-04-23T14:04:22.583Z,32.10
2019-04-23T14:05:12.644Z,32.20
2019-04-23T14:07:38.469Z,32.10
2019-04-23T14:10:00.530Z,32.10
2019-04-23T14:10:55.719Z,32.30
2019-04-23T14:12:01.431Z,32.00
2019-04-23T14:13:33.145Z,31.40
2019-04-23T14:14:34.472Z,31.00
2019-04-23T14:15:40.564Z,31.20
2019-04-23T14:16:48.437Z,30.70
2019-04-23T14:18:13.315Z,30.70
2019-04-23T14:20:10.058Z,29.90
2019-04-23T14:21:19.236Z,28.60
2019-04-23T14:22:46.683Z,28.80
2019-04-23T14:23:31.517Z,28.60
2019-04-23T14:24:46.203Z,28.70
2019-04-23T14:26:00.209Z,29.60
2019-04-23T14:26:51.445Z,29.70
2019-04-23T14:28:14.438Z,29.70
2019-04-23T14:29:04.542Z,29.90
2019-04-23T14:30:29.510Z,30.00
2019-04-23T14:31:23.175Z,30.00
2019-04-23T14:32:43.292Z,30.20
2019-04-23T14:33:52.662Z,30.00
2019-04-23T14:35:05.989Z,29.90
2019-04-23T14:36:03.210Z,29.30
2019-04-23T14:39:24.181Z,30.70
2019-04-23T14:40:34.378Z,30.70
2019-04-23T14:41:45.000Z,31.40
2019-04-23T14:42:58.355Z,30.90
2019-04-23T14:44:05.357Z,30.70
2019-04-23T14:45:32.669Z,31.00
2019-04-23T14:47:28.348Z,30.90
2019-04-23T14:48:32.390Z,31.50
2019-04-23T14:51:02.380Z,31.30
2019-04-23T14:53:27.223Z,32.10
2019-04-23T14:54:34.724Z,32.30
2019-04-23T14:56:59.239Z,32.80
2019-04-23T14:58:10.524Z,32.80
2019-04-23T14:59:07.275Z,33.10
2019-04-23T15:00:07.249Z,32.60
2019-04-23T15:02:25.736Z,32.80
2019-04-23T15:03:36.151Z,32.90
2019-04-23T15:04:39.750Z,32.70
2019-04-23T15:06:00.155Z,32.80
2019-04-23T15:07:00.926Z,32.90
2019-04-23T15:08:05.383Z,32.70
2019-04-23T15:09:13.945Z,33.10
2019-04-23T15:10:24.501Z,32.70
2019-04-23T15:11:29.287Z,32.90
2019-04-23T15:13:46.872Z,32.90
2019-04-23T15:14:58.688Z,32.90
2019-04-23T15:16:06.279Z,32.80
2019-04-23T15:17:07.199Z,32.80
2019-04-23T15:18:46.640Z,32.70
2019-04-23T15:19:47.968Z,33.00
2019-04-23T15:21:19.052Z,33.10
2019-04-23T15:22:20.551Z,33.40
2019-04-23T15:23:33.554Z,33.20
2019-04-23T15:24:30.451Z,33.40
2019-04-23T15:25:56.305Z,33.70
2019-04-23T15:28:37.402Z,33.80
2019-04-23T15:29:51.120Z,34.00
2019-04-23T15:31:19.192Z,33.80
2019-04-23T15:32:24.152Z,33.70
2019-04-23T15:33:35.477Z,33.70
2019-04-23T15:34:30.453Z,33.90
2019-04-23T15:36:03.642Z,34.20
2019-04-23T15:37:00.861Z,34.20
2019-04-23T15:38:20.493Z,34.40
2019-04-23T15:39:17.422Z,34.40
2019-04-23T15:40:23.287Z,34.50
2019-04-23T15:41:32.035Z,34.70
2019-04-23T15:42:34.857Z,34.50
2019-04-23T15:43:47.332Z,34.40
2019-04-23T15:44:55.915Z,34.60
2019-04-23T15:46:05.982Z,35.00
2019-04-23T15:47:10.801Z,34.80
2019-04-23T15:48:16.081Z,34.70
2019-04-23T15:49:28.759Z,34.70
2019-04-23T15:52:53.871Z,34.90
2019-04-23T15:53:58.166Z,35.20
2019-04-23T15:55:01.280Z,35.40
2019-04-23T15:56:18.290Z,35.80
2019-04-23T15:57:20.046Z,35.10
2019-04-23T15:58:33.515Z,35.20
2019-04-23T15:59:48.206Z,35.30
2019-04-23T16:00:55.778Z,35.40
2019-04-23T16:01:43.454Z,35.40
2019-04-23T16:02:32.764Z,35.70
2019-04-23T16:03:41.848Z,35.70
2019-04-23T16:04:47.231Z,35.60
2019-04-23T16:05:55.071Z,35.60
2019-04-23T16:07:02.434Z,35.50
2019-04-23T16:08:45.814Z,35.40
2019-04-23T16:09:45.854Z,35.60
2019-04-23T16:11:10.457Z,35.60
2019-04-23T16:11:51.890Z,36.00
2019-04-23T16:13:15.034Z,35.50
2019-04-23T16:14:22.792Z,35.60
2019-04-23T16:15:35.477Z,35.80
2019-04-23T16:16:45.430Z,35.60
2019-04-23T16:17:58.102Z,35.80
2019-04-23T16:22:32.084Z,35.80
2019-04-23T16:23:41.268Z,35.70
2019-04-23T16:24:56.046Z,35.60
2019-04-23T16:25:58.344Z,36.00
2019-04-23T16:27:08.044Z,36.00
2019-04-23T16:29:32.875Z,35.60
2019-04-23T16:30:25.492Z,35.40
2019-04-23T16:31:39.819Z,35.30
2019-04-23T16:33:05.273Z,35.50
2019-04-23T16:35:59.929Z,35.70
2019-04-23T16:37:07.734Z,35.80
2019-04-23T16:38:23.309Z,36.10
2019-04-23T16:39:16.932Z,36.40
2019-04-23T16:40:34.850Z,36.10
2019-04-23T16:41:39.934Z,36.20
2019-04-23T16:42:51.144Z,36.40
2019-04-23T16:43:57.175Z,36.10
2019-04-23T16:47:23.174Z,36.40
2019-04-23T16:49:36.270Z,37.00
2019-04-23T16:51:08.506Z,37.20
2019-04-23T16:51:45.977Z,36.60
2019-04-23T16:53:11.666Z,36.90
2019-04-23T16:54:10.051Z,36.90
2019-04-23T16:56:27.424Z,37.10
2019-04-23T16:58:42.117Z,37.40
2019-04-23T17:00:02.955Z,37.20
2019-04-23T17:02:14.913Z,37.30
2019-04-23T17:03:18.204Z,37.30
2019-04-23T17:04:24.835Z,37.20
2019-04-23T17:05:39.324Z,37.30
2019-04-23T17:06:46.235Z,37.80
2019-04-23T17:08:06.590Z,37.90
2019-04-23T17:08:57.656Z,38.00
2019-04-23T17:12:37.916Z,37.60
2019-04-23T17:13:50.274Z,38.00
2019-04-23T17:14:42.310Z,38.20
2019-04-23T17:16:47.440Z,38.40
2019-04-23T17:18:07.338Z,38.10
2019-04-23T17:20:25.166Z,38.20
2019-04-23T17:21:33.125Z,38.30
2019-04-23T17:22:38.674Z,38.40
2019-04-23T17:23:45.795Z,38.80
2019-04-23T17:25:00.708Z,38.30
2019-04-23T17:26:02.688Z,38.20
2019-04-23T17:28:18.263Z,38.10
2019-04-23T17:30:34.199Z,38.10
2019-04-23T17:32:57.216Z,38.00
2019-04-23T17:34:11.132Z,38.00
2019-04-23T17:35:17.479Z,38.20
2019-04-23T17:36:30.745Z,38.20
2019-04-23T17:37:40.607Z,38.40
2019-04-23T17:38:55.497Z,39.40
2019-04-23T17:41:33.104Z,38.40
2019-04-23T17:42:48.393Z,38.20
2019-04-23T17:44:12.312Z,38.20
2019-04-23T17:46:14.808Z,38.60
2019-04-23T17:48:48.699Z,38.80
2019-04-23T17:51:11.580Z,38.60
2019-04-23T17:55:48.369Z,39.10
2019-04-23T17:56:54.121Z,38.80
2019-04-23T17:57:53.438Z,38.70
2019-04-23T17:59:04.260Z,39.10
2019-04-23T18:03:39.980Z,39.30
2019-04-23T18:04:50.546Z,39.00
2019-04-23T18:06:03.674Z,39.40
2019-04-23T18:06:56.314Z,39.30
2019-04-23T18:08:09.861Z,39.70
2019-04-23T18:09:27.946Z,39.60
2019-04-23T18:10:27.477Z,39.80
2019-04-23T18:11:50.011Z,40.00
2019-04-23T18:13:50.543Z,40.80
2019-04-23T18:15:03.185Z,40.40
2019-04-23T18:16:27.693Z,40.40
2019-04-23T18:17:21.137Z,40.50
2019-04-23T18:18:33.134Z,40.80
2019-04-23T18:19:30.285Z,40.70
2019-04-23T18:21:14.278Z,41.00
2019-04-23T18:23:14.835Z,41.50
2019-04-23T18:24:52.690Z,41.00
2019-04-23T18:26:05.503Z,41.30
2019-04-23T18:27:21.753Z,42.50
2019-04-23T18:28:16.956Z,41.90
2019-04-23T18:29:43.973Z,41.50
2019-04-23T18:35:10.342Z,42.50
2019-04-23T18:35:49.476Z,42.10
2019-04-23T18:37:13.813Z,42.10
2019-04-23T18:39:22.241Z,42.30
2019-04-23T18:40:40.372Z,42.20
2019-04-23T18:41:43.265Z,42.80
2019-04-23T18:43:59.239Z,42.50